Terminal Aerodrome Forecast
Issued by NWS Northern Indiana

Home | Current Version | Previous Version | Text Only | Print | Product List | Glossary On
Versions: 1 2 3 4 5 6 7 8 9 10 11 12
000
FTUS43 KIWX 300500
TAFFWA
TAF
KFWA 300538Z 3006/3106 28012G20KT P6SM SCT030 BKN060
     FM301100 27010KT P6SM SCT250
     FM301600 28014G22KT P6SM SCT060
     FM310000 21006KT P6SM BKN060
     FM310500 21014KT P6SM BKN080 WS020/25050KT=

USA.gov is the U.S. government's official web portal to all federal, state and local government web resources and services.